sensor_id;sensor_type;location;lat;lon;timestamp;temperature;humidity
25112;DHT22;13092;51.996;4.458;2023-03-20T00:00:53;9.30;99.90
25112;DHT22;13092;51.996;4.458;2023-03-20T00:03:22;9.30;99.90
25112;DHT22;13092;51.996;4.458;2023-03-20T00:05:50;9.30;99.90
25112;DHT22;13092;51.996;4.458;2023-03-20T00:08:24;9.20;99.90
25112;DHT22;13092;51.996;4.458;2023-03-20T00:10:55;9.00;99.90
25112;DHT22;13092;51.996;4.458;2023-03-20T00:13:24;9.20;99.90
25112;DHT22;13092;51.996;4.458;2023-03-20T00:15:55;9.20;99.90
25112;DHT22;13092;51.996;4.458;2023-03-20T00:18:26;9.20;99.90
25112;DHT22;13092;51.996;4.458;2023-03-20T00:20:55;9.20;99.90
25112;DHT22;13092;51.996;4.458;2023-03-20T00:23:23;9.20;99.90
25112;DHT22;13092;51.996;4.458;2023-03-20T00:25:52;9.10;99.90
25112;DHT22;13092;51.996;4.458;2023-03-20T00:28:34;9.10;99.90
25112;DHT22;13092;51.996;4.458;2023-03-20T00:31:19;9.10;99.90
25112;DHT22;13092;51.996;4.458;2023-03-20T00:33:51;9.10;99.90
25112;DHT22;13092;51.996;4.458;2023-03-20T00:36:19;9.10;99.90
25112;DHT22;13092;51.996;4.458;2023-03-20T00:38:48;9.10;99.90
25112;DHT22;13092;51.996;4.458;2023-03-20T00:41:23;9.10;99.90
25112;DHT22;13092;51.996;4.458;2023-03-20T00:43:55;9.10;99.90
25112;DHT22;13092;51.996;4.458;2023-03-20T00:46:28;9.10;99.90
25112;DHT22;13092;51.996;4.458;2023-03-20T00:49:00;9.10;99.90
25112;DHT22;13092;51.996;4.458;2023-03-20T00:51:29;9.00;99.90
25112;DHT22;13092;51.996;4.458;2023-03-20T00:53:59;9.10;99.90
25112;DHT22;13092;51.996;4.458;2023-03-20T00:56:31;9.00;99.90
25112;DHT22;13092;51.996;4.458;2023-03-20T00:59:00;9.00;99.90
25112;DHT22;13092;51.996;4.458;2023-03-20T01:01:31;9.10;99.90
25112;DHT22;13092;51.996;4.458;2023-03-20T01:03:59;8.90;99.90
25112;DHT22;13092;51.996;4.458;2023-03-20T01:06:28;9.10;99.90
25112;DHT22;13092;51.996;4.458;2023-03-20T01:08:57;9.10;99.90
25112;DHT22;13092;51.996;4.458;2023-03-20T01:11:29;9.20;99.90
25112;DHT22;13092;51.996;4.458;2023-03-20T01:13:57;9.10;99.90
25112;DHT22;13092;51.996;4.458;2023-03-20T01:16:26;9.20;99.90
25112;DHT22;13092;51.996;4.458;2023-03-20T01:18:56;9.30;99.90
25112;DHT22;13092;51.996;4.458;2023-03-20T01:21:29;9.10;99.90
25112;DHT22;13092;51.996;4.458;2023-03-20T01:23:57;9.00;99.90
25112;DHT22;13092;51.996;4.458;2023-03-20T01:26:30;9.00;99.90
25112;DHT22;13092;51.996;4.458;2023-03-20T01:28:59;9.00;99.90
25112;DHT22;13092;51.996;4.458;2023-03-20T01:31:53;9.00;99.90
25112;DHT22;13092;51.996;4.458;2023-03-20T01:34:23;8.90;99.90
25112;DHT22;13092;51.996;4.458;2023-03-20T01:36:55;9.00;99.90
25112;DHT22;13092;51.996;4.458;2023-03-20T01:39:29;9.00;99.90
25112;DHT22;13092;51.996;4.458;2023-03-20T01:41:59;8.80;99.90
25112;DHT22;13092;51.996;4.458;2023-03-20T01:44:29;8.90;99.90
25112;DHT22;13092;51.996;4.458;2023-03-20T01:46:58;8.90;99.90
25112;DHT22;13092;51.996;4.458;2023-03-20T01:50:15;8.90;99.90
25112;DHT22;13092;51.996;4.458;2023-03-20T01:52:45;9.00;99.90
25112;DHT22;13092;51.996;4.458;2023-03-20T01:55:14;9.00;99.90
25112;DHT22;13092;51.996;4.458;2023-03-20T01:57:42;9.00;99.90
25112;DHT22;13092;51.996;4.458;2023-03-20T02:00:14;9.00;99.90
25112;DHT22;13092;51.996;4.458;2023-03-20T02:02:44;9.00;99.90
25112;DHT22;13092;51.996;4.458;2023-03-20T02:05:18;9.00;99.90
25112;DHT22;13092;51.996;4.458;2023-03-20T02:07:58;9.00;99.90
25112;DHT22;13092;51.996;4.458;2023-03-20T02:10:29;9.00;99.90
25112;DHT22;13092;51.996;4.458;2023-03-20T02:12:59;9.00;99.90
25112;DHT22;13092;51.996;4.458;2023-03-20T02:15:32;9.10;99.90
25112;DHT22;13092;51.996;4.458;2023-03-20T02:18:01;9.00;99.90
25112;DHT22;13092;51.996;4.458;2023-03-20T02:20:54;9.00;99.90
25112;DHT22;13092;51.996;4.458;2023-03-20T02:23:47;8.90;99.90
25112;DHT22;13092;51.996;4.458;2023-03-20T02:26:33;8.90;99.90
25112;DHT22;13092;51.996;4.458;2023-03-20T02:29:36;8.90;99.90
25112;DHT22;13092;51.996;4.458;2023-03-20T02:35:56;8.90;99.90
25112;DHT22;13092;51.996;4.458;2023-03-20T02:38:46;8.90;99.90
25112;DHT22;13092;51.996;4.458;2023-03-20T02:41:24;8.90;99.90
25112;DHT22;13092;51.996;4.458;2023-03-20T02:44:00;8.80;99.90
25112;DHT22;13092;51.996;4.458;2023-03-20T02:46:41;8.90;99.90
25112;DHT22;13092;51.996;4.458;2023-03-20T02:49:18;8.80;99.90
25112;DHT22;13092;51.996;4.458;2023-03-20T02:51:56;8.80;99.90
25112;DHT22;13092;51.996;4.458;2023-03-20T02:54:33;8.80;99.90
25112;DHT22;13092;51.996;4.458;2023-03-20T02:57:07;9.00;99.90
25112;DHT22;13092;51.996;4.458;2023-03-20T02:59:42;8.90;99.90
25112;DHT22;13092;51.996;4.458;2023-03-20T03:02:15;8.90;99.90
25112;DHT22;13092;51.996;4.458;2023-03-20T03:04:50;8.90;99.90
25112;DHT22;13092;51.996;4.458;2023-03-20T03:07:23;8.80;99.90
25112;DHT22;13092;51.996;4.458;2023-03-20T03:09:56;9.00;99.90
25112;DHT22;13092;51.996;4.458;2023-03-20T03:12:30;8.80;99.90
25112;DHT22;13092;51.996;4.458;2023-03-20T03:15:03;8.80;99.90
25112;DHT22;13092;51.996;4.458;2023-03-20T03:17:35;8.80;99.90
25112;DHT22;13092;51.996;4.458;2023-03-20T03:20:11;8.80;99.90
25112;DHT22;13092;51.996;4.458;2023-03-20T03:22:42;8.80;99.90
25112;DHT22;13092;51.996;4.458;2023-03-20T03:25:12;8.90;99.90
25112;DHT22;13092;51.996;4.458;2023-03-20T03:27:42;8.80;99.90
25112;DHT22;13092;51.996;4.458;2023-03-20T03:30:15;8.70;99.90
25112;DHT22;13092;51.996;4.458;2023-03-20T03:32:49;8.90;99.90
25112;DHT22;13092;51.996;4.458;2023-03-20T03:35:19;8.90;99.90
25112;DHT22;13092;51.996;4.458;2023-03-20T03:37:54;8.80;99.90
25112;DHT22;13092;51.996;4.458;2023-03-20T03:40:32;8.80;99.90
25112;DHT22;13092;51.996;4.458;2023-03-20T03:43:06;8.80;99.90
25112;DHT22;13092;51.996;4.458;2023-03-20T03:45:38;8.80;99.90
25112;DHT22;13092;51.996;4.458;2023-03-20T03:48:11;8.80;99.90
25112;DHT22;13092;51.996;4.458;2023-03-20T03:50:44;8.80;99.90
25112;DHT22;13092;51.996;4.458;2023-03-20T03:53:18;8.90;99.90
25112;DHT22;13092;51.996;4.458;2023-03-20T03:55:49;8.80;99.90
25112;DHT22;13092;51.996;4.458;2023-03-20T03:58:24;8.80;99.90
25112;DHT22;13092;51.996;4.458;2023-03-20T04:00:57;8.80;99.90
25112;DHT22;13092;51.996;4.458;2023-03-20T04:03:29;8.80;99.90
25112;DHT22;13092;51.996;4.458;2023-03-20T04:05:59;8.80;99.90
25112;DHT22;13092;51.996;4.458;2023-03-20T04:08:28;8.80;99.90
25112;DHT22;13092;51.996;4.458;2023-03-20T04:11:01;8.70;99.90
25112;DHT22;13092;51.996;4.458;2023-03-20T04:13:31;8.70;99.90
25112;DHT22;13092;51.996;4.458;2023-03-20T04:15:59;8.80;99.90
25112;DHT22;13092;51.996;4.458;2023-03-20T04:18:28;8.80;99.90
25112;DHT22;13092;51.996;4.458;2023-03-20T04:20:56;8.70;99.90
25112;DHT22;13092;51.996;4.458;2023-03-20T04:23:24;8.70;99.90
25112;DHT22;13092;51.996;4.458;2023-03-20T04:25:52;8.70;99.90
25112;DHT22;13092;51.996;4.458;2023-03-20T04:28:23;8.80;99.90
25112;DHT22;13092;51.996;4.458;2023-03-20T04:30:51;8.80;99.90
25112;DHT22;13092;51.996;4.458;2023-03-20T04:33:25;8.80;99.90
25112;DHT22;13092;51.996;4.458;2023-03-20T04:35:56;8.80;99.90
25112;DHT22;13092;51.996;4.458;2023-03-20T04:38:24;8.80;99.90
25112;DHT22;13092;51.996;4.458;2023-03-20T04:40:53;8.80;99.90
25112;DHT22;13092;51.996;4.458;2023-03-20T04:43:26;8.80;99.90
25112;DHT22;13092;51.996;4.458;2023-03-20T04:45:55;8.80;99.90
25112;DHT22;13092;51.996;4.458;2023-03-20T04:48:23;8.80;99.90
25112;DHT22;13092;51.996;4.458;2023-03-20T04:50:56;8.70;99.90
25112;DHT22;13092;51.996;4.458;2023-03-20T04:53:25;8.70;99.90
25112;DHT22;13092;51.996;4.458;2023-03-20T04:55:56;8.70;99.90
25112;DHT22;13092;51.996;4.458;2023-03-20T04:58:29;8.70;99.90
25112;DHT22;13092;51.996;4.458;2023-03-20T05:00:57;8.80;99.90
25112;DHT22;13092;51.996;4.458;2023-03-20T05:03:26;8.70;99.90
25112;DHT22;13092;51.996;4.458;2023-03-20T05:05:54;8.70;99.90
25112;DHT22;13092;51.996;4.458;2023-03-20T05:08:22;8.60;99.90
25112;DHT22;13092;51.996;4.458;2023-03-20T05:10:51;8.60;99.90
25112;DHT22;13092;51.996;4.458;2023-03-20T05:13:23;8.70;99.90
25112;DHT22;13092;51.996;4.458;2023-03-20T05:15:56;8.60;99.90
25112;DHT22;13092;51.996;4.458;2023-03-20T05:18:24;8.60;99.90
25112;DHT22;13092;51.996;4.458;2023-03-20T05:20:52;8.60;99.90
25112;DHT22;13092;51.996;4.458;2023-03-20T05:23:20;8.60;99.90
25112;DHT22;13092;51.996;4.458;2023-03-20T05:25:48;8.70;99.90
25112;DHT22;13092;51.996;4.458;2023-03-20T05:28:16;8.80;99.90
25112;DHT22;13092;51.996;4.458;2023-03-20T05:30:44;8.60;99.90
25112;DHT22;13092;51.996;4.458;2023-03-20T05:33:17;8.60;99.90
25112;DHT22;13092;51.996;4.458;2023-03-20T05:35:45;8.70;99.90
25112;DHT22;13092;51.996;4.458;2023-03-20T05:38:13;8.70;99.90
25112;DHT22;13092;51.996;4.458;2023-03-20T05:40:42;8.80;99.90
25112;DHT22;13092;51.996;4.458;2023-03-20T05:43:11;8.70;99.90
25112;DHT22;13092;51.996;4.458;2023-03-20T05:45:41;8.70;99.90
25112;DHT22;13092;51.996;4.458;2023-03-20T05:48:09;8.70;99.90
25112;DHT22;13092;51.996;4.458;2023-03-20T05:50:39;8.70;99.90
25112;DHT22;13092;51.996;4.458;2023-03-20T05:53:12;8.70;99.90
25112;DHT22;13092;51.996;4.458;2023-03-20T05:55:41;8.70;99.90
25112;DHT22;13092;51.996;4.458;2023-03-20T05:58:11;8.90;99.90
25112;DHT22;13092;51.996;4.458;2023-03-20T06:00:39;8.70;99.90
25112;DHT22;13092;51.996;4.458;2023-03-20T06:03:07;8.80;99.90
25112;DHT22;13092;51.996;4.458;2023-03-20T06:05:35;8.80;99.90
25112;DHT22;13092;51.996;4.458;2023-03-20T06:08:05;8.90;99.90
25112;DHT22;13092;51.996;4.458;2023-03-20T06:10:33;8.80;99.90
25112;DHT22;13092;51.996;4.458;2023-03-20T06:13:01;8.80;99.90
25112;DHT22;13092;51.996;4.458;2023-03-20T06:15:30;8.80;99.90
25112;DHT22;13092;51.996;4.458;2023-03-20T06:17:58;8.80;99.90
25112;DHT22;13092;51.996;4.458;2023-03-20T06:20:27;8.80;99.90
25112;DHT22;13092;51.996;4.458;2023-03-20T06:22:55;8.80;99.90
25112;DHT22;13092;51.996;4.458;2023-03-20T06:25:25;8.80;99.90
25112;DHT22;13092;51.996;4.458;2023-03-20T06:27:56;8.90;99.90
25112;DHT22;13092;51.996;4.458;2023-03-20T06:30:24;8.90;99.90
25112;DHT22;13092;51.996;4.458;2023-03-20T06:32:54;8.90;99.90
25112;DHT22;13092;51.996;4.458;2023-03-20T06:35:22;8.90;99.90
25112;DHT22;13092;51.996;4.458;2023-03-20T06:37:50;8.90;99.90
25112;DHT22;13092;51.996;4.458;2023-03-20T06:40:19;8.90;99.90
25112;DHT22;13092;51.996;4.458;2023-03-20T06:42:52;8.90;99.90
25112;DHT22;13092;51.996;4.458;2023-03-20T06:45:21;8.90;99.90
25112;DHT22;13092;51.996;4.458;2023-03-20T06:47:50;8.90;99.90
25112;DHT22;13092;51.996;4.458;2023-03-20T06:50:18;8.90;99.90
25112;DHT22;13092;51.996;4.458;2023-03-20T06:52:46;8.90;99.90
25112;DHT22;13092;51.996;4.458;2023-03-20T06:55:15;9.00;99.90
25112;DHT22;13092;51.996;4.458;2023-03-20T06:57:44;9.00;99.90
25112;DHT22;13092;51.996;4.458;2023-03-20T07:00:16;9.10;99.90
25112;DHT22;13092;51.996;4.458;2023-03-20T07:02:47;9.00;99.90
25112;DHT22;13092;51.996;4.458;2023-03-20T07:05:16;9.00;99.90
25112;DHT22;13092;51.996;4.458;2023-03-20T07:07:44;9.10;99.90
25112;DHT22;13092;51.996;4.458;2023-03-20T07:10:12;9.00;99.90
25112;DHT22;13092;51.996;4.458;2023-03-20T07:12:42;9.10;99.90
25112;DHT22;13092;51.996;4.458;2023-03-20T07:15:17;9.10;99.90
25112;DHT22;13092;51.996;4.458;2023-03-20T07:17:45;9.10;99.90
25112;DHT22;13092;51.996;4.458;2023-03-20T07:20:14;9.10;99.90
25112;DHT22;13092;51.996;4.458;2023-03-20T07:22:42;9.30;99.90
25112;DHT22;13092;51.996;4.458;2023-03-20T07:25:11;9.20;99.90
25112;DHT22;13092;51.996;4.458;2023-03-20T07:27:39;9.20;99.90
25112;DHT22;13092;51.996;4.458;2023-03-20T07:30:10;9.30;99.90
25112;DHT22;13092;51.996;4.458;2023-03-20T07:32:40;9.10;99.90
25112;DHT22;13092;51.996;4.458;2023-03-20T07:35:09;9.30;99.90
25112;DHT22;13092;51.996;4.458;2023-03-20T07:37:37;9.30;99.90
25112;DHT22;13092;51.996;4.458;2023-03-20T07:40:07;9.20;99.90
25112;DHT22;13092;51.996;4.458;2023-03-20T07:42:36;9.30;99.90
25112;DHT22;13092;51.996;4.458;2023-03-20T07:45:08;9.30;99.90
25112;DHT22;13092;51.996;4.458;2023-03-20T07:47:36;9.30;99.90
25112;DHT22;13092;51.996;4.458;2023-03-20T07:50:07;9.40;99.90
25112;DHT22;13092;51.996;4.458;2023-03-20T07:52:35;9.20;99.90
25112;DHT22;13092;51.996;4.458;2023-03-20T07:55:04;9.40;99.90
25112;DHT22;13092;51.996;4.458;2023-03-20T07:57:33;9.20;99.90
25112;DHT22;13092;51.996;4.458;2023-03-20T08:00:01;9.20;99.90
25112;DHT22;13092;51.996;4.458;2023-03-20T08:02:30;9.20;99.90
25112;DHT22;13092;51.996;4.458;2023-03-20T08:05:03;9.20;99.90
25112;DHT22;13092;51.996;4.458;2023-03-20T08:07:34;9.20;99.90
25112;DHT22;13092;51.996;4.458;2023-03-20T08:10:05;9.20;99.90
25112;DHT22;13092;51.996;4.458;2023-03-20T08:12:34;9.20;99.90
25112;DHT22;13092;51.996;4.458;2023-03-20T08:15:02;9.20;99.90
25112;DHT22;13092;51.996;4.458;2023-03-20T08:17:31;9.20;99.90
25112;DHT22;13092;51.996;4.458;2023-03-20T08:19:59;9.10;99.90
25112;DHT22;13092;51.996;4.458;2023-03-20T08:22:27;9.10;99.90
25112;DHT22;13092;51.996;4.458;2023-03-20T08:24:57;9.30;99.90
25112;DHT22;13092;51.996;4.458;2023-03-20T08:27:25;9.20;99.90
25112;DHT22;13092;51.996;4.458;2023-03-20T08:29:53;9.20;99.90
25112;DHT22;13092;51.996;4.458;2023-03-20T08:32:21;9.30;99.90
25112;DHT22;13092;51.996;4.458;2023-03-20T08:34:52;9.30;99.90
25112;DHT22;13092;51.996;4.458;2023-03-20T08:37:21;9.40;99.90
25112;DHT22;13092;51.996;4.458;2023-03-20T08:39:49;9.30;99.90
25112;DHT22;13092;51.996;4.458;2023-03-20T08:42:19;9.30;99.90
25112;DHT22;13092;51.996;4.458;2023-03-20T08:44:47;9.30;99.90
25112;DHT22;13092;51.996;4.458;2023-03-20T08:47:16;9.40;99.90
25112;DHT22;13092;51.996;4.458;2023-03-20T08:49:44;9.50;99.90
25112;DHT22;13092;51.996;4.458;2023-03-20T08:52:12;9.50;99.90
25112;DHT22;13092;51.996;4.458;2023-03-20T08:54:40;9.50;99.90
25112;DHT22;13092;51.996;4.458;2023-03-20T08:57:09;9.60;99.90
25112;DHT22;13092;51.996;4.458;2023-03-20T08:59:39;9.70;99.90
25112;DHT22;13092;51.996;4.458;2023-03-20T09:02:11;9.70;99.90
25112;DHT22;13092;51.996;4.458;2023-03-20T09:04:40;9.70;99.90
25112;DHT22;13092;51.996;4.458;2023-03-20T09:07:08;9.80;99.90
25112;DHT22;13092;51.996;4.458;2023-03-20T09:09:37;9.90;99.90
25112;DHT22;13092;51.996;4.458;2023-03-20T09:12:05;9.80;99.90
25112;DHT22;13092;51.996;4.458;2023-03-20T09:14:34;9.80;99.90
25112;DHT22;13092;51.996;4.458;2023-03-20T09:17:04;9.80;99.90
25112;DHT22;13092;51.996;4.458;2023-03-20T09:19:32;9.80;99.90
25112;DHT22;13092;51.996;4.458;2023-03-20T09:22:00;9.80;99.90
25112;DHT22;13092;51.996;4.458;2023-03-20T09:24:31;9.90;99.90
25112;DHT22;13092;51.996;4.458;2023-03-20T09:27:00;9.80;99.90
25112;DHT22;13092;51.996;4.458;2023-03-20T09:29:30;9.90;99.90
25112;DHT22;13092;51.996;4.458;2023-03-20T09:31:58;9.90;99.90
25112;DHT22;13092;51.996;4.458;2023-03-20T09:34:28;10.00;99.90
25112;DHT22;13092;51.996;4.458;2023-03-20T09:36:58;10.00;99.90
25112;DHT22;13092;51.996;4.458;2023-03-20T09:39:29;10.00;99.90
25112;DHT22;13092;51.996;4.458;2023-03-20T09:42:00;10.20;99.90
25112;DHT22;13092;51.996;4.458;2023-03-20T09:44:41;10.10;99.90
25112;DHT22;13092;51.996;4.458;2023-03-20T09:47:17;10.20;99.90
25112;DHT22;13092;51.996;4.458;2023-03-20T09:50:05;10.20;99.90
25112;DHT22;13092;51.996;4.458;2023-03-20T09:52:39;10.30;99.90
25112;DHT22;13092;51.996;4.458;2023-03-20T09:55:13;10.30;99.90
25112;DHT22;13092;51.996;4.458;2023-03-20T09:57:43;10.40;99.90
25112;DHT22;13092;51.996;4.458;2023-03-20T10:00:14;10.30;99.90
25112;DHT22;13092;51.996;4.458;2023-03-20T10:02:48;10.50;99.90
25112;DHT22;13092;51.996;4.458;2023-03-20T10:05:28;10.30;99.90
25112;DHT22;13092;51.996;4.458;2023-03-20T10:07:58;10.40;99.90
25112;DHT22;13092;51.996;4.458;2023-03-20T10:10:36;10.40;99.90
25112;DHT22;13092;51.996;4.458;2023-03-20T10:16:14;10.40;99.90
25112;DHT22;13092;51.996;4.458;2023-03-20T10:18:50;10.40;99.90
25112;DHT22;13092;51.996;4.458;2023-03-20T10:21:31;10.40;99.90
25112;DHT22;13092;51.996;4.458;2023-03-20T10:24:05;10.40;99.90
25112;DHT22;13092;51.996;4.458;2023-03-20T10:26:35;10.40;99.90
25112;DHT22;13092;51.996;4.458;2023-03-20T10:29:06;10.50;99.90
25112;DHT22;13092;51.996;4.458;2023-03-20T10:31:42;10.40;99.90
25112;DHT22;13092;51.996;4.458;2023-03-20T10:34:25;10.50;99.90
25112;DHT22;13092;51.996;4.458;2023-03-20T10:37:10;10.50;99.90
25112;DHT22;13092;51.996;4.458;2023-03-20T10:39:53;10.50;99.90
25112;DHT22;13092;51.996;4.458;2023-03-20T10:42:27;10.40;99.90
25112;DHT22;13092;51.996;4.458;2023-03-20T10:45:01;10.40;99.90
25112;DHT22;13092;51.996;4.458;2023-03-20T10:47:37;10.40;99.90
25112;DHT22;13092;51.996;4.458;2023-03-20T10:50:14;10.30;99.90
25112;DHT22;13092;51.996;4.458;2023-03-20T10:52:47;10.50;99.90
25112;DHT22;13092;51.996;4.458;2023-03-20T10:55:19;10.50;99.90
25112;DHT22;13092;51.996;4.458;2023-03-20T10:57:53;10.60;99.90
25112;DHT22;13092;51.996;4.458;2023-03-20T11:00:25;10.50;99.90
25112;DHT22;13092;51.996;4.458;2023-03-20T11:02:54;10.60;99.90
25112;DHT22;13092;51.996;4.458;2023-03-20T11:05:27;10.90;99.90
25112;DHT22;13092;51.996;4.458;2023-03-20T11:08:05;10.70;99.90
25112;DHT22;13092;51.996;4.458;2023-03-20T11:10:36;10.70;99.90
25112;DHT22;13092;51.996;4.458;2023-03-20T11:13:14;10.70;99.90
25112;DHT22;13092;51.996;4.458;2023-03-20T11:15:45;10.80;99.90
25112;DHT22;13092;51.996;4.458;2023-03-20T11:18:14;10.80;99.90
25112;DHT22;13092;51.996;4.458;2023-03-20T11:20:48;10.90;99.90
25112;DHT22;13092;51.996;4.458;2023-03-20T11:23:23;10.90;99.90
25112;DHT22;13092;51.996;4.458;2023-03-20T11:25:56;10.90;99.90
25112;DHT22;13092;51.996;4.458;2023-03-20T11:28:30;10.80;99.90
25112;DHT22;13092;51.996;4.458;2023-03-20T11:31:01;10.80;99.90
25112;DHT22;13092;51.996;4.458;2023-03-20T11:33:36;10.80;99.90
25112;DHT22;13092;51.996;4.458;2023-03-20T11:36:10;10.80;99.90
25112;DHT22;13092;51.996;4.458;2023-03-20T11:38:44;10.80;99.90
25112;DHT22;13092;51.996;4.458;2023-03-20T11:41:17;10.80;99.90
25112;DHT22;13092;51.996;4.458;2023-03-20T11:43:46;10.80;99.90
25112;DHT22;13092;51.996;4.458;2023-03-20T11:46:14;10.70;99.90
25112;DHT22;13092;51.996;4.458;2023-03-20T11:48:44;10.70;99.90
25112;DHT22;13092;51.996;4.458;2023-03-20T11:51:15;10.60;99.90
25112;DHT22;13092;51.996;4.458;2023-03-20T11:53:58;10.70;99.90
25112;DHT22;13092;51.996;4.458;2023-03-20T11:56:28;10.60;99.90
25112;DHT22;13092;51.996;4.458;2023-03-20T11:59:02;10.60;99.90
25112;DHT22;13092;51.996;4.458;2023-03-20T12:01:38;10.60;99.90
25112;DHT22;13092;51.996;4.458;2023-03-20T12:04:11;10.60;99.90
25112;DHT22;13092;51.996;4.458;2023-03-20T12:06:45;10.70;99.90
25112;DHT22;13092;51.996;4.458;2023-03-20T12:09:30;10.70;99.90
25112;DHT22;13092;51.996;4.458;2023-03-20T12:12:01;10.60;99.90
25112;DHT22;13092;51.996;4.458;2023-03-20T12:14:36;10.60;99.90
25112;DHT22;13092;51.996;4.458;2023-03-20T12:17:24;10.80;99.90
25112;DHT22;13092;51.996;4.458;2023-03-20T12:19:57;10.60;99.90
25112;DHT22;13092;51.996;4.458;2023-03-20T12:22:32;10.60;99.90
25112;DHT22;13092;51.996;4.458;2023-03-20T12:25:08;10.60;99.90
25112;DHT22;13092;51.996;4.458;2023-03-20T12:27:44;10.50;99.90
25112;DHT22;13092;51.996;4.458;2023-03-20T12:30:18;10.50;99.90
25112;DHT22;13092;51.996;4.458;2023-03-20T12:32:51;10.50;99.90
25112;DHT22;13092;51.996;4.458;2023-03-20T12:35:25;10.50;99.90
25112;DHT22;13092;51.996;4.458;2023-03-20T12:37:57;10.40;99.90
25112;DHT22;13092;51.996;4.458;2023-03-20T12:40:35;10.50;99.90
25112;DHT22;13092;51.996;4.458;2023-03-20T12:43:12;10.50;99.90
25112;DHT22;13092;51.996;4.458;2023-03-20T12:45:48;10.70;99.90
25112;DHT22;13092;51.996;4.458;2023-03-20T12:48:42;10.50;99.90
25112;DHT22;13092;51.996;4.458;2023-03-20T12:51:18;10.60;99.90
25112;DHT22;13092;51.996;4.458;2023-03-20T12:53:58;10.60;99.90
25112;DHT22;13092;51.996;4.458;2023-03-20T12:56:39;10.50;99.90
25112;DHT22;13092;51.996;4.458;2023-03-20T12:59:16;10.60;99.90
25112;DHT22;13092;51.996;4.458;2023-03-20T13:01:50;10.60;99.90
25112;DHT22;13092;51.996;4.458;2023-03-20T13:04:35;10.70;99.90
25112;DHT22;13092;51.996;4.458;2023-03-20T13:07:16;10.60;99.90
25112;DHT22;13092;51.996;4.458;2023-03-20T13:10:05;10.60;99.90
25112;DHT22;13092;51.996;4.458;2023-03-20T13:12:43;10.50;99.90
25112;DHT22;13092;51.996;4.458;2023-03-20T13:15:25;10.60;99.90
25112;DHT22;13092;51.996;4.458;2023-03-20T13:18:03;10.70;99.90
25112;DHT22;13092;51.996;4.458;2023-03-20T13:20:35;10.80;99.90
25112;DHT22;13092;51.996;4.458;2023-03-20T13:23:12;10.70;99.90
25112;DHT22;13092;51.996;4.458;2023-03-20T13:26:11;10.70;99.90
25112;DHT22;13092;51.996;4.458;2023-03-20T13:28:52;10.70;99.90
25112;DHT22;13092;51.996;4.458;2023-03-20T13:31:32;10.60;99.90
25112;DHT22;13092;51.996;4.458;2023-03-20T13:34:09;10.60;99.90
25112;DHT22;13092;51.996;4.458;2023-03-20T13:36:50;10.70;99.90
25112;DHT22;13092;51.996;4.458;2023-03-20T13:39:34;10.60;99.90
25112;DHT22;13092;51.996;4.458;2023-03-20T13:42:10;10.60;99.90
25112;DHT22;13092;51.996;4.458;2023-03-20T13:44:44;10.70;99.90
25112;DHT22;13092;51.996;4.458;2023-03-20T13:47:20;10.60;99.90
25112;DHT22;13092;51.996;4.458;2023-03-20T13:50:24;10.60;99.90
25112;DHT22;13092;51.996;4.458;2023-03-20T13:53:03;10.60;99.90
25112;DHT22;13092;51.996;4.458;2023-03-20T13:55:41;10.60;99.90
25112;DHT22;13092;51.996;4.458;2023-03-20T13:58:41;10.50;99.90
25112;DHT22;13092;51.996;4.458;2023-03-20T14:01:19;10.50;99.90
25112;DHT22;13092;51.996;4.458;2023-03-20T14:03:50;10.60;99.90
25112;DHT22;13092;51.996;4.458;2023-03-20T14:06:47;10.60;99.90
25112;DHT22;13092;51.996;4.458;2023-03-20T14:09:27;10.60;99.90
25112;DHT22;13092;51.996;4.458;2023-03-20T14:12:00;10.50;99.90
25112;DHT22;13092;51.996;4.458;2023-03-20T14:14:39;10.60;99.90
25112;DHT22;13092;51.996;4.458;2023-03-20T14:17:19;10.60;99.90
25112;DHT22;13092;51.996;4.458;2023-03-20T14:19:48;10.60;99.90
25112;DHT22;13092;51.996;4.458;2023-03-20T14:22:20;10.60;99.90
25112;DHT22;13092;51.996;4.458;2023-03-20T14:24:53;10.60;99.90
25112;DHT22;13092;51.996;4.458;2023-03-20T14:27:27;10.80;99.90
25112;DHT22;13092;51.996;4.458;2023-03-20T14:30:39;10.60;99.90
25112;DHT22;13092;51.996;4.458;2023-03-20T14:33:25;10.70;99.90
25112;DHT22;13092;51.996;4.458;2023-03-20T14:36:18;10.60;99.90
25112;DHT22;13092;51.996;4.458;2023-03-20T14:39:14;10.70;99.90
25112;DHT22;13092;51.996;4.458;2023-03-20T14:41:59;10.70;99.90
25112;DHT22;13092;51.996;4.458;2023-03-20T14:44:43;10.70;99.90
25112;DHT22;13092;51.996;4.458;2023-03-20T14:47:24;10.80;99.90
25112;DHT22;13092;51.996;4.458;2023-03-20T14:50:08;10.80;99.90
25112;DHT22;13092;51.996;4.458;2023-03-20T14:52:49;10.80;99.90
25112;DHT22;13092;51.996;4.458;2023-03-20T14:55:32;10.80;99.90
25112;DHT22;13092;51.996;4.458;2023-03-20T14:58:03;10.80;99.90
25112;DHT22;13092;51.996;4.458;2023-03-20T15:00:34;10.80;99.90
25112;DHT22;13092;51.996;4.458;2023-03-20T15:03:14;10.90;99.90
25112;DHT22;13092;51.996;4.458;2023-03-20T15:05:46;10.90;99.90
25112;DHT22;13092;51.996;4.458;2023-03-20T15:08:24;10.90;99.90
25112;DHT22;13092;51.996;4.458;2023-03-20T15:11:01;10.90;99.90
25112;DHT22;13092;51.996;4.458;2023-03-20T15:13:33;10.90;99.90
25112;DHT22;13092;51.996;4.458;2023-03-20T15:16:05;10.90;99.90
25112;DHT22;13092;51.996;4.458;2023-03-20T15:18:37;10.90;99.90
25112;DHT22;13092;51.996;4.458;2023-03-20T15:21:12;10.90;99.90
25112;DHT22;13092;51.996;4.458;2023-03-20T15:23:42;10.90;99.90
25112;DHT22;13092;51.996;4.458;2023-03-20T15:26:14;11.00;99.90
25112;DHT22;13092;51.996;4.458;2023-03-20T15:28:44;10.90;99.90
25112;DHT22;13092;51.996;4.458;2023-03-20T15:31:21;11.00;99.90
25112;DHT22;13092;51.996;4.458;2023-03-20T15:33:52;11.00;99.90
25112;DHT22;13092;51.996;4.458;2023-03-20T15:36:28;11.00;99.90
25112;DHT22;13092;51.996;4.458;2023-03-20T15:39:11;11.10;99.90
25112;DHT22;13092;51.996;4.458;2023-03-20T15:41:43;11.00;99.90
25112;DHT22;13092;51.996;4.458;2023-03-20T15:44:18;11.00;99.90
25112;DHT22;13092;51.996;4.458;2023-03-20T15:46:56;11.00;99.90
25112;DHT22;13092;51.996;4.458;2023-03-20T15:49:26;11.00;99.90
25112;DHT22;13092;51.996;4.458;2023-03-20T15:51:59;11.00;99.90
25112;DHT22;13092;51.996;4.458;2023-03-20T15:54:28;11.00;99.90
25112;DHT22;13092;51.996;4.458;2023-03-20T15:56:58;11.00;99.90
25112;DHT22;13092;51.996;4.458;2023-03-20T15:59:30;11.00;99.90
25112;DHT22;13092;51.996;4.458;2023-03-20T16:02:00;11.00;99.90
25112;DHT22;13092;51.996;4.458;2023-03-20T16:04:29;11.00;99.90
25112;DHT22;13092;51.996;4.458;2023-03-20T16:06:59;11.00;99.90
25112;DHT22;13092;51.996;4.458;2023-03-20T16:09:28;11.10;99.90
25112;DHT22;13092;51.996;4.458;2023-03-20T16:11:59;11.10;99.90
25112;DHT22;13092;51.996;4.458;2023-03-20T16:14:30;11.00;99.90
25112;DHT22;13092;51.996;4.458;2023-03-20T16:17:00;11.00;99.90
25112;DHT22;13092;51.996;4.458;2023-03-20T16:19:29;11.10;99.90
25112;DHT22;13092;51.996;4.458;2023-03-20T16:22:01;11.00;99.90
25112;DHT22;13092;51.996;4.458;2023-03-20T16:24:35;11.00;99.90